createdAt,value
2023-02-16T00:01:50.980Z,33.30
2023-02-16T00:05:52.635Z,36.40
2023-02-16T00:09:54.072Z,33.78
2023-02-16T00:13:55.645Z,32.75
2023-02-16T00:18:00.145Z,32.85
2023-02-16T00:22:02.623Z,38.83
2023-02-16T00:26:05.810Z,34.40
2023-02-16T00:30:25.483Z,33.92
2023-02-16T00:34:40.005Z,33.45
2023-02-16T00:38:41.734Z,34.30
2023-02-16T00:42:46.035Z,33.20
2023-02-16T00:46:48.133Z,34.97
2023-02-16T00:50:49.939Z,32.72
2023-02-16T00:54:52.730Z,34.03
2023-02-16T00:58:54.313Z,39.80
2023-02-16T01:02:58.678Z,29.20
2023-02-16T01:07:18.539Z,33.17
2023-02-16T01:11:21.201Z,30.88
2023-02-16T01:15:25.889Z,31.65
2023-02-16T01:19:27.633Z,31.55
2023-02-16T01:23:29.508Z,32.80
2023-02-16T01:27:31.303Z,34.08
2023-02-16T01:31:33.115Z,37.17
2023-02-16T01:35:37.796Z,37.30
2023-02-16T01:39:39.504Z,32.15
2023-02-16T01:43:48.230Z,32.25
2023-02-16T01:47:56.509Z,32.80
2023-02-16T01:52:13.976Z,34.60
2023-02-16T01:56:37.187Z,30.33
2023-02-16T02:00:57.200Z,31.27
2023-02-16T02:05:33.569Z,36.00
2023-02-16T02:09:42.573Z,29.95
2023-02-16T02:13:55.563Z,30.85
2023-02-16T02:17:58.366Z,32.22
2023-02-16T02:22:37.918Z,31.88
2023-02-16T02:27:20.567Z,31.38
2023-02-16T02:31:56.971Z,31.75
2023-02-16T02:36:40.520Z,29.13
2023-02-16T02:41:14.972Z,27.88
2023-02-16T02:45:41.202Z,28.38
2023-02-16T02:49:54.917Z,27.20
2023-02-16T02:54:26.113Z,25.88
2023-02-16T02:59:11.659Z,28.48
2023-02-16T03:03:27.589Z,34.88
2023-02-16T03:07:47.018Z,29.67
2023-02-16T03:12:09.671Z,26.92
2023-02-16T03:16:23.594Z,29.08
2023-02-16T03:20:44.716Z,29.50
2023-02-16T03:25:05.414Z,28.67
2023-02-16T03:29:22.542Z,25.08
2023-02-16T03:33:25.577Z,29.27
2023-02-16T03:37:27.105Z,27.33
2023-02-16T03:41:33.561Z,28.25
2023-02-16T03:45:39.367Z,29.85
2023-02-16T03:49:41.075Z,28.35
2023-02-16T03:53:42.641Z,28.70
2023-02-16T03:57:44.508Z,27.65
2023-02-16T04:01:46.476Z,32.13
2023-02-16T04:05:48.018Z,27.80
2023-02-16T04:09:49.596Z,30.75
2023-02-16T04:13:51.168Z,31.90
2023-02-16T04:17:53.866Z,27.88
2023-02-16T04:21:55.404Z,31.17
2023-02-16T04:25:56.912Z,32.63
2023-02-16T04:29:58.403Z,32.85
2023-02-16T04:33:59.916Z,34.58
2023-02-16T04:38:01.438Z,23.75
2023-02-16T04:42:03.734Z,33.42
2023-02-16T04:46:05.334Z,29.33
2023-02-16T04:50:08.178Z,38.75
2023-02-16T04:54:09.861Z,34.13
2023-02-16T04:58:11.389Z,37.85
2023-02-16T05:02:13.083Z,23.55
2023-02-16T05:06:14.625Z,33.22
2023-02-16T05:10:16.144Z,34.97
2023-02-16T05:14:44.406Z,30.83
2023-02-16T05:18:45.940Z,33.40
2023-02-16T05:22:47.635Z,28.88
2023-02-16T05:26:49.148Z,34.58
2023-02-16T05:30:50.949Z,34.45
2023-02-16T05:34:52.473Z,35.60
2023-02-16T05:38:54.133Z,31.77
2023-02-16T05:42:55.856Z,31.95
2023-02-16T05:46:57.536Z,27.55
2023-02-16T05:50:59.102Z,31.83
2023-02-16T05:55:01.293Z,29.15
2023-02-16T05:59:05.064Z,28.48
2023-02-16T06:03:06.809Z,32.88
2023-02-16T06:07:08.356Z,35.67
2023-02-16T06:11:46.551Z,32.00
2023-02-16T06:19:52.200Z,30.92
2023-02-16T06:23:54.114Z,32.15
2023-02-16T06:27:56.853Z,28.27
2023-02-16T06:31:58.591Z,31.90
2023-02-16T06:36:00.241Z,31.77
2023-02-16T06:40:01.771Z,36.83
2023-02-16T06:44:06.217Z,32.95
2023-02-16T06:48:07.747Z,32.75
2023-02-16T06:52:09.922Z,35.53
2023-02-16T06:56:11.724Z,29.33
2023-02-16T07:00:15.085Z,26.85
2023-02-16T07:04:17.490Z,36.45
2023-02-16T07:08:19.011Z,31.92
2023-02-16T07:12:20.890Z,30.52
2023-02-16T07:16:22.425Z,33.15
2023-02-16T07:20:24.211Z,32.63
2023-02-16T07:24:26.199Z,38.47
2023-02-16T07:28:27.707Z,30.85
2023-02-16T07:32:29.717Z,31.55
2023-02-16T07:36:31.371Z,34.40
2023-02-16T07:40:32.943Z,27.70
2023-02-16T07:44:34.621Z,33.95
2023-02-16T07:48:36.361Z,27.58
2023-02-16T07:52:38.160Z,29.52
2023-02-16T07:56:39.645Z,30.70
2023-02-16T08:00:41.921Z,31.92
2023-02-16T08:04:43.983Z,32.58
2023-02-16T08:08:46.466Z,26.67
2023-02-16T08:12:49.677Z,27.92
2023-02-16T08:16:54.779Z,27.88
2023-02-16T08:21:04.336Z,27.50
2023-02-16T08:25:07.161Z,26.10
2023-02-16T08:29:10.385Z,25.65
2023-02-16T08:33:12.290Z,25.33
2023-02-16T08:37:41.473Z,21.10
2023-02-16T08:41:44.599Z,27.58
2023-02-16T08:45:47.694Z,25.13
2023-02-16T08:49:49.857Z,23.92
2023-02-16T08:53:52.296Z,26.33
2023-02-16T08:57:53.797Z,21.95
2023-02-16T09:01:59.979Z,24.13
2023-02-16T09:06:04.837Z,23.50
2023-02-16T09:10:08.082Z,25.83
2023-02-16T09:14:10.369Z,22.98
2023-02-16T09:18:12.695Z,22.52
2023-02-16T09:22:15.212Z,23.65
2023-02-16T09:26:18.447Z,22.35
2023-02-16T09:30:20.817Z,24.83
2023-02-16T09:34:23.404Z,21.45
2023-02-16T09:38:25.415Z,22.33
2023-02-16T09:42:48.670Z,22.33
2023-02-16T09:46:50.457Z,22.23
2023-02-16T09:50:54.902Z,24.42
2023-02-16T09:54:59.445Z,23.42
2023-02-16T09:59:12.620Z,22.92
2023-02-16T10:03:20.981Z,23.88
2023-02-16T10:07:32.831Z,24.08
2023-02-16T10:11:48.556Z,23.02
2023-02-16T10:15:53.905Z,22.13
2023-02-16T10:20:01.189Z,22.52
2023-02-16T10:24:07.441Z,21.13
2023-02-16T10:28:17.369Z,21.20
2023-02-16T10:32:27.010Z,22.50
2023-02-16T10:36:56.052Z,22.13
2023-02-16T10:41:13.993Z,23.80
2023-02-16T10:45:34.597Z,26.55
2023-02-16T10:49:37.188Z,21.63
2023-02-16T10:53:54.498Z,20.98
2023-02-16T11:02:16.994Z,21.23
2023-02-16T11:06:22.880Z,22.15
2023-02-16T11:10:48.179Z,21.67
2023-02-16T11:15:02.322Z,21.52
2023-02-16T11:19:07.637Z,21.00
2023-02-16T11:23:22.583Z,23.13
2023-02-16T11:27:24.318Z,19.52
2023-02-16T11:31:33.676Z,19.17
2023-02-16T11:35:43.494Z,21.65
2023-02-16T11:39:55.036Z,22.20
2023-02-16T11:43:57.777Z,19.17
2023-02-16T11:48:13.910Z,19.80
2023-02-16T11:52:27.024Z,19.75
2023-02-16T11:56:31.040Z,18.13
2023-02-16T12:00:34.528Z,19.92
2023-02-16T12:04:42.245Z,21.27
2023-02-16T12:09:14.423Z,18.85
2023-02-16T12:13:33.369Z,21.17
2023-02-16T12:17:34.999Z,18.30
2023-02-16T12:22:16.286Z,22.27
2023-02-16T12:26:42.659Z,19.50
2023-02-16T12:30:58.165Z,19.38
2023-02-16T12:35:18.129Z,19.70
2023-02-16T12:39:55.177Z,19.05
2023-02-16T12:44:08.002Z,22.40
2023-02-16T12:48:30.172Z,22.70
2023-02-16T12:52:54.063Z,21.60
2023-02-16T12:57:01.373Z,21.42
2023-02-16T13:01:12.005Z,22.30
2023-02-16T13:05:21.088Z,21.83
2023-02-16T13:09:50.180Z,24.13
2023-02-16T13:13:56.818Z,25.98
2023-02-16T13:18:06.862Z,25.70
2023-02-16T13:22:37.597Z,26.48
2023-02-16T13:27:18.298Z,23.95
2023-02-16T13:31:35.266Z,26.48
2023-02-16T13:36:18.908Z,27.40
2023-02-16T13:40:34.181Z,27.25
2023-02-16T13:44:45.784Z,24.17
2023-02-16T13:48:50.569Z,27.83
2023-02-16T13:52:54.550Z,26.42
2023-02-16T13:56:56.328Z,27.23
2023-02-16T14:00:59.020Z,25.65
2023-02-16T14:05:03.973Z,26.02
2023-02-16T14:09:14.649Z,31.27
2023-02-16T14:13:17.107Z,28.60
2023-02-16T14:17:21.705Z,25.85
2023-02-16T14:21:41.913Z,26.67
2023-02-16T14:25:43.509Z,26.70
2023-02-16T14:29:59.018Z,30.00
2023-02-16T14:34:12.472Z,27.67
2023-02-16T14:38:29.863Z,29.23
2023-02-16T14:42:34.130Z,29.95
2023-02-16T14:46:54.328Z,28.02
2023-02-16T14:51:01.719Z,30.65
2023-02-16T14:55:29.439Z,28.52
2023-02-16T14:59:57.182Z,28.70
2023-02-16T15:03:58.970Z,30.83
2023-02-16T15:08:16.840Z,29.63
2023-02-16T15:12:22.851Z,30.00
2023-02-16T15:16:24.779Z,29.77
2023-02-16T15:20:31.301Z,32.00
2023-02-16T15:24:34.296Z,34.85
2023-02-16T15:28:38.515Z,30.58
2023-02-16T15:32:41.343Z,30.77
2023-02-16T15:36:45.221Z,34.63
2023-02-16T15:40:47.852Z,33.95
2023-02-16T15:44:49.852Z,33.20
2023-02-16T15:48:51.602Z,37.50
2023-02-16T15:52:53.974Z,33.30
2023-02-16T15:56:58.426Z,34.53
2023-02-16T16:01:00.519Z,36.83
2023-02-16T16:05:05.881Z,33.03
2023-02-16T16:09:17.583Z,35.25
2023-02-16T16:13:24.013Z,32.75
2023-02-16T16:17:31.573Z,32.30
2023-02-16T16:21:39.096Z,42.53
2023-02-16T16:25:47.270Z,35.80
2023-02-16T16:29:48.980Z,36.45
2023-02-16T16:34:04.627Z,34.95
2023-02-16T16:38:21.319Z,40.65
2023-02-16T16:42:23.803Z,38.88
2023-02-16T16:46:29.778Z,37.17
2023-02-16T16:50:39.647Z,40.80
2023-02-16T16:54:41.526Z,38.25
2023-02-16T16:58:43.050Z,44.15
2023-02-16T17:02:45.045Z,41.35
2023-02-16T17:06:46.578Z,41.28
2023-02-16T17:10:48.343Z,46.42
2023-02-16T17:14:49.866Z,44.65
2023-02-16T17:18:51.555Z,43.63
2023-02-16T17:22:53.135Z,43.50
2023-02-16T17:26:55.109Z,41.15
2023-02-16T17:30:57.377Z,41.63
2023-02-16T17:34:59.004Z,44.38
2023-02-16T17:39:00.782Z,40.78
2023-02-16T17:43:02.499Z,39.95
2023-02-16T17:47:04.121Z,46.65
2023-02-16T17:51:10.283Z,43.88
2023-02-16T17:59:15.257Z,41.78
2023-02-16T18:03:18.006Z,44.03
2023-02-16T18:07:19.765Z,44.15
2023-02-16T18:11:21.244Z,45.38
2023-02-16T18:15:22.977Z,47.65
2023-02-16T18:19:24.634Z,41.97
2023-02-16T18:23:26.183Z,40.15
2023-02-16T18:27:29.421Z,43.60
2023-02-16T18:31:31.736Z,40.05
2023-02-16T18:35:33.362Z,41.05
2023-02-16T18:39:34.898Z,44.53
2023-02-16T18:43:37.214Z,41.63
2023-02-16T18:47:38.984Z,39.03
2023-02-16T18:51:40.538Z,38.63
2023-02-16T18:55:42.192Z,40.58
2023-02-16T18:59:43.858Z,46.45
2023-02-16T19:03:45.414Z,39.22
2023-02-16T19:07:47.184Z,43.25
2023-02-16T19:11:49.103Z,39.13
2023-02-16T19:15:50.644Z,38.22
2023-02-16T19:19:52.414Z,45.45
2023-02-16T19:23:53.980Z,41.97
2023-02-16T19:27:55.584Z,44.70
2023-02-16T19:31:57.395Z,42.67
2023-02-16T19:36:04.535Z,40.53
2023-02-16T19:40:08.514Z,41.60
2023-02-16T19:44:14.496Z,41.30
2023-02-16T19:48:16.720Z,46.10
2023-02-16T19:52:18.487Z,43.42
2023-02-16T19:56:23.882Z,42.95
2023-02-16T20:00:25.671Z,43.45
2023-02-16T20:04:27.506Z,42.25
2023-02-16T20:08:29.154Z,47.13
2023-02-16T20:12:30.856Z,45.17
2023-02-16T20:16:32.683Z,35.53
2023-02-16T20:20:35.462Z,43.60
2023-02-16T20:24:37.071Z,44.17
2023-02-16T20:28:39.637Z,42.78
2023-02-16T20:32:41.230Z,43.85
2023-02-16T20:36:42.964Z,40.20
2023-02-16T20:40:45.010Z,43.70
2023-02-16T20:44:46.678Z,40.85
2023-02-16T20:48:49.977Z,38.95
2023-02-16T20:52:51.919Z,48.47
2023-02-16T20:56:53.661Z,41.83
2023-02-16T21:00:55.440Z,39.95
2023-02-16T21:04:57.211Z,41.05
2023-02-16T21:08:58.999Z,38.95
2023-02-16T21:13:01.849Z,39.55
2023-02-16T21:17:04.670Z,35.28
2023-02-16T21:21:07.700Z,35.58
2023-02-16T21:25:09.571Z,38.25
2023-02-16T21:29:12.930Z,37.70
2023-02-16T21:33:15.416Z,29.88
2023-02-16T21:37:19.032Z,42.03
2023-02-16T21:41:28.632Z,34.42
2023-02-16T21:45:30.271Z,40.70
2023-02-16T21:49:31.953Z,34.60
2023-02-16T21:53:38.170Z,39.53
2023-02-16T21:57:39.900Z,34.33
2023-02-16T22:01:44.609Z,33.17
2023-02-16T22:05:46.748Z,34.92
2023-02-16T22:09:48.307Z,35.45
2023-02-16T22:13:55.953Z,34.47
2023-02-16T22:17:57.464Z,36.97
2023-02-16T22:21:59.647Z,32.85
2023-02-16T22:26:01.464Z,33.53
2023-02-16T22:30:12.607Z,33.55
2023-02-16T22:34:17.537Z,38.72
2023-02-16T22:38:19.309Z,36.60
2023-02-16T22:42:22.460Z,35.67
2023-02-16T22:46:25.267Z,36.17
2023-02-16T22:50:27.830Z,30.38
2023-02-16T22:54:29.445Z,36.28
2023-02-16T22:58:33.235Z,35.08
2023-02-16T23:02:37.946Z,30.67
2023-02-16T23:06:39.729Z,30.40
2023-02-16T23:10:59.456Z,30.90
2023-02-16T23:15:01.085Z,31.52
2023-02-16T23:19:03.139Z,32.65
2023-02-16T23:23:04.700Z,29.52
2023-02-16T23:27:06.271Z,27.70
2023-02-16T23:31:08.748Z,27.23
2023-02-16T23:35:10.376Z,28.73
2023-02-16T23:39:16.049Z,29.52
2023-02-16T23:43:17.647Z,27.77
2023-02-16T23:47:19.778Z,32.30
2023-02-16T23:51:21.499Z,30.67
2023-02-16T23:55:23.247Z,29.83
2023-02-16T23:59:25.838Z,27.95
